Terminal Aerodrome Forecast
Issued by NWS

Home | Current Version | Previous Version | Text Only | Print | Product List | Glossary On
Versions: 1 2 3 4 5 6 7 8 9 10 11 12 13 14 15 16 17 18 19
178
FTUS44 KCRP 240809 AAA
TAFLRD
TAF AMD
KLRD 240809Z 2408/2506 14015G24KT P6SM SCT020 BKN150
     FM241000 13012KT P6SM SCT015 BKN050
      TEMPO 2410/2414 BKN015 OVC050
     FM241600 14012KT P6SM BKN025 OVC050
     FM242100 13014G21KT P6SM BKN050
     FM250200 12014KT P6SM SCT040 BKN200=

USA.gov is the U.S. government's official web portal to all federal, state and local government web resources and services.